createdAt,value
2019-01-10T09:23:02.658Z,0.60
2019-01-10T09:25:30.249Z,0.85
2019-01-10T09:27:57.750Z,3.02
2019-01-10T09:30:25.825Z,1.87
2019-01-10T09:51:50.791Z,24.23
2019-01-10T10:05:37.940Z,17.00
2019-01-10T10:17:41.697Z,16.97
2019-01-10T10:29:44.571Z,20.20
2019-01-10T10:41:49.411Z,27.73
2019-01-10T10:53:52.080Z,20.37
2019-01-10T11:05:56.775Z,23.83
2019-01-10T11:17:59.684Z,24.00
2019-01-10T11:30:02.470Z,15.45
2019-01-10T11:42:06.184Z,12.00
2019-01-10T11:54:10.041Z,13.85
2019-01-10T12:06:12.677Z,15.85
2019-01-10T12:18:16.670Z,11.08
2019-01-10T12:30:19.435Z,11.08
2019-01-10T12:42:20.802Z,11.93
2019-01-10T12:54:24.128Z,26.75
2019-01-10T13:06:25.687Z,20.05
2019-01-10T13:17:46.286Z,31.12
2019-01-10T13:23:47.702Z,22.13
2019-01-10T13:29:49.162Z,19.50
2019-01-10T13:35:50.671Z,13.72
2019-01-10T13:41:52.163Z,11.68
2019-01-10T13:47:54.926Z,12.28
2019-01-10T13:53:57.622Z,11.93
2019-01-10T13:59:59.047Z,13.53
2019-01-10T14:06:01.829Z,13.75
2019-01-10T14:12:03.386Z,12.25
2019-01-10T14:18:05.136Z,12.25
2019-01-10T14:24:06.914Z,10.93
2019-01-10T14:30:13.021Z,19.00
2019-01-10T14:36:14.804Z,9.55
2019-01-10T14:42:16.178Z,9.48
2019-01-10T14:48:17.566Z,9.55
2019-01-10T14:54:18.850Z,9.55
2019-01-10T15:00:21.095Z,8.10
2019-01-10T15:06:22.666Z,10.48
2019-01-10T15:12:24.989Z,9.60
2019-01-10T15:18:26.469Z,10.78
2019-01-10T15:24:27.911Z,12.10
2019-01-10T15:30:29.330Z,11.12
2019-01-10T15:36:33.513Z,13.43
2019-01-10T15:42:34.951Z,14.65
2019-01-10T15:48:36.353Z,14.00
2019-01-10T15:54:38.674Z,13.43
2019-01-10T16:00:40.026Z,11.22
2019-01-10T16:06:41.454Z,11.28
2019-01-10T16:12:42.997Z,10.08
2019-01-10T16:18:44.546Z,12.37
2019-01-10T16:24:46.933Z,18.95
2019-01-10T16:30:49.427Z,16.77
2019-01-10T16:36:52.739Z,12.90
2019-01-10T16:42:56.346Z,12.53
2019-01-10T16:48:57.637Z,9.95
2019-01-10T16:54:58.915Z,9.98
2019-01-10T17:01:00.209Z,9.50
2019-01-10T17:07:02.629Z,9.98
2019-01-10T17:13:04.030Z,10.15
2019-01-10T17:19:05.347Z,11.73
2019-01-10T17:25:07.188Z,10.48
2019-01-10T17:31:08.907Z,12.13
2019-01-10T17:37:10.493Z,11.20
2019-01-10T17:43:12.964Z,18.30
2019-01-10T17:49:15.308Z,15.63
2019-01-10T17:55:16.588Z,7.78
2019-01-10T18:01:18.267Z,11.73
2019-01-10T18:07:20.726Z,7.95
2019-01-10T18:13:23.139Z,6.75
2019-01-10T18:19:24.621Z,8.25
2019-01-10T18:25:26.186Z,8.58
2019-01-10T18:31:28.694Z,8.58
2019-01-10T18:37:30.126Z,11.30
2019-01-10T18:43:32.714Z,25.97
2019-01-10T18:49:35.182Z,60.43
2019-01-10T18:55:37.033Z,31.02
2019-01-10T19:01:38.560Z,19.10
2019-01-10T19:07:40.033Z,14.15
2019-01-10T19:13:42.959Z,12.40
2019-01-10T19:19:45.317Z,7.83
2019-01-10T19:25:46.802Z,6.08
2019-01-10T19:31:50.200Z,4.80
2019-01-10T19:37:52.384Z,5.20
2019-01-10T19:43:53.854Z,5.08
2019-01-10T19:49:58.651Z,3.62
2019-01-10T19:56:00.954Z,3.33
2019-01-10T20:02:04.616Z,3.83
2019-01-10T20:08:05.955Z,6.08
2019-01-10T20:14:08.445Z,3.95
2019-01-10T20:20:20.331Z,5.05
2019-01-10T20:26:21.773Z,4.22
2019-01-10T20:32:23.083Z,3.10
2019-01-10T20:38:25.303Z,5.55
2019-01-10T20:44:27.753Z,4.37
2019-01-10T20:50:30.087Z,5.17
2019-01-10T20:56:32.738Z,4.22
2019-01-10T21:02:36.068Z,4.70
2019-01-10T21:08:37.522Z,5.70
2019-01-10T21:14:39.955Z,5.22
2019-01-10T21:20:42.498Z,4.42
2019-01-10T21:26:43.989Z,4.40
2019-01-10T21:32:46.866Z,5.60
2019-01-10T21:38:48.246Z,6.17
2019-01-10T21:44:50.057Z,7.85
2019-01-10T21:50:51.889Z,8.93
2019-01-10T21:56:53.562Z,9.75
2019-01-10T22:02:55.329Z,9.48
2019-01-10T22:08:57.807Z,7.00
2019-01-10T22:14:59.118Z,5.40
2019-01-10T22:21:00.675Z,7.65
2019-01-10T22:27:02.909Z,7.10
2019-01-10T22:33:04.315Z,7.00
2019-01-10T22:39:07.874Z,8.30
2019-01-10T22:45:09.228Z,8.33
2019-01-10T22:51:10.653Z,7.12
2019-01-10T22:57:12.044Z,5.47
2019-01-10T23:03:13.497Z,4.75
2019-01-10T23:09:14.877Z,5.45
2019-01-10T23:15:27.680Z,6.90
2019-01-10T23:21:30.065Z,6.60
2019-01-10T23:27:32.346Z,6.85
2019-01-10T23:33:34.922Z,6.83
2019-01-10T23:39:36.377Z,6.42
2019-01-10T23:45:37.662Z,6.22
2019-01-10T23:51:38.922Z,7.75
2019-01-10T23:57:40.325Z,7.42
